createdAt,value
2022-08-23T06:16:52.570Z,9.15
2022-08-23T06:19:21.574Z,6.70
2022-08-23T06:21:47.909Z,6.88
2022-08-23T06:24:14.254Z,6.85
2022-08-23T06:26:42.288Z,5.13
2022-08-23T06:29:11.158Z,4.70
2022-08-23T06:31:47.633Z,7.32
2022-08-23T06:34:24.431Z,7.30
2022-08-23T06:36:52.825Z,7.45
2022-08-23T06:39:20.052Z,8.90
2022-08-23T06:41:48.605Z,10.98
2022-08-23T06:44:15.245Z,8.02
2022-08-23T06:46:42.177Z,4.50
2022-08-23T06:51:37.362Z,5.53
2022-08-23T06:54:05.727Z,11.30
2022-08-23T06:56:32.298Z,19.42
2022-08-23T06:58:59.433Z,15.77
2022-08-23T07:01:44.499Z,12.40
2022-08-23T07:04:12.630Z,12.90
2022-08-23T07:06:38.929Z,10.35
2022-08-23T07:09:05.299Z,8.93
2022-08-23T07:11:32.881Z,6.35
2022-08-23T07:14:00.864Z,10.10
2022-08-23T07:16:37.309Z,7.40
2022-08-23T07:19:04.149Z,13.23
2022-08-23T07:21:30.801Z,12.43
2022-08-23T07:23:57.366Z,4.65
2022-08-23T07:26:24.091Z,6.18
2022-08-23T07:28:50.727Z,7.15
2022-08-23T07:31:19.560Z,8.90
2022-08-23T07:33:46.322Z,9.95
2022-08-23T07:38:39.709Z,5.45
2022-08-23T07:41:06.405Z,10.93
2022-08-23T07:43:34.286Z,11.85
2022-08-23T07:46:01.133Z,8.27
2022-08-23T07:48:52.509Z,10.35
2022-08-23T07:51:14.185Z,7.28
2022-08-23T07:53:43.070Z,9.75
2022-08-23T07:56:13.784Z,9.10
2022-08-23T07:58:40.155Z,18.60
2022-08-23T08:01:12.502Z,17.73
2022-08-23T08:03:39.508Z,9.88
2022-08-23T08:06:09.646Z,8.15
2022-08-23T08:08:35.958Z,8.93
2022-08-23T08:11:02.264Z,7.82
2022-08-23T08:13:28.950Z,8.20
2022-08-23T08:15:55.324Z,8.75
2022-08-23T08:18:21.627Z,12.23
2022-08-23T08:20:48.176Z,12.00
2022-08-23T08:23:14.466Z,7.63
2022-08-23T08:25:40.754Z,12.98
2022-08-23T08:28:09.469Z,5.70
2022-08-23T08:30:40.252Z,14.45
2022-08-23T08:33:06.525Z,19.92
2022-08-23T08:35:32.798Z,12.57
2022-08-23T08:37:59.430Z,38.28
2022-08-23T08:43:13.655Z,12.02
2022-08-23T08:46:02.738Z,22.17
2022-08-23T08:48:30.295Z,28.42
2022-08-23T08:51:00.704Z,21.83
2022-08-23T08:53:30.185Z,15.30
2022-08-23T08:55:58.183Z,20.27
2022-08-23T08:58:32.485Z,18.33
2022-08-23T09:00:59.173Z,25.15
2022-08-23T09:03:28.997Z,28.00
2022-08-23T09:06:00.053Z,29.52
2022-08-23T09:08:42.073Z,47.20
2022-08-23T09:11:14.415Z,30.92
2022-08-23T09:13:55.834Z,26.77
2022-08-23T09:16:40.614Z,48.45
2022-08-23T09:19:07.190Z,56.70
2022-08-23T09:21:40.517Z,34.22
2022-08-23T09:24:06.806Z,32.00
2022-08-23T09:26:33.138Z,46.92
2022-08-23T09:29:01.828Z,39.83
2022-08-23T09:31:44.998Z,52.50
2022-08-23T09:34:17.161Z,27.13
2022-08-23T09:36:43.446Z,40.40
2022-08-23T09:39:24.373Z,25.70
2022-08-23T09:41:57.946Z,29.65
2022-08-23T09:44:33.646Z,34.20
2022-08-23T09:47:15.606Z,29.63
2022-08-23T09:49:43.551Z,36.42
2022-08-23T09:52:32.689Z,32.15
2022-08-23T09:55:00.969Z,30.55
2022-08-23T09:57:28.278Z,46.95
2022-08-23T09:59:56.423Z,38.80
2022-08-23T10:02:28.067Z,37.42
2022-08-23T10:05:00.753Z,30.08
2022-08-23T10:07:29.173Z,49.40
2022-08-23T10:10:12.609Z,40.67
2022-08-23T10:12:38.876Z,34.75
2022-08-23T10:15:06.646Z,36.47
2022-08-23T10:17:39.270Z,31.60
2022-08-23T10:20:21.552Z,24.33
2022-08-23T10:22:55.746Z,18.85
2022-08-23T10:25:25.034Z,24.30
2022-08-23T10:28:14.218Z,24.95
2022-08-23T10:30:59.555Z,30.42
2022-08-23T10:33:43.503Z,21.63
2022-08-23T10:36:15.416Z,28.25
2022-08-23T10:38:46.130Z,25.45
2022-08-23T10:41:12.426Z,22.23
2022-08-23T10:43:42.718Z,23.65
2022-08-23T10:46:09.771Z,21.13
2022-08-23T10:48:48.969Z,46.75
2022-08-23T10:51:31.722Z,43.65
2022-08-23T10:54:06.200Z,57.75
